Hlavní strana
METAR-TAF:

METAR-TAF

Letiště :

Sétif, Alžírsko

zeměpisná šířka: 36-11N, zeměpisná délka: 005-25E, výška: 1038 m

Aktuální stav počasí

Zpráva byla vytvořena před 40 minutami, v 02:00 UTC
Severní vítr 3 kt
Teplota 7°C
Vlhkost vzduchu 93%
Tlak 1017 hPa
Viditelnost: 8000 m
Oblačno až skoro zataženo ve výšce 2600 ft

METAR: DAAS 040200Z 01003KT 8000 BKN026 07/06 Q1017

Čas: 03:40 (02:40 UTC)

Předpověď počasí

Zpráva byla vytvořena před 3 hodinami a 40 minutami, v 23:00 UTC
Předpověď platná od 04 v 00 UTC do 04 v 24 UTC
Západoseverozápadní vítr 8 kt
Viditelnost 10 km a více
Skoro jasno ve výšce 1600 ft
Polojasno ve výšce 2600 ft
Pravděpodobnost 30% :
Dočasný
od 04 v 05 UTC do 04 v 10 UTC
Skoro jasno ve výšce 2000 ft, Vertikální cumulus.

TAF: DAAS 032300Z 0400/0424 30008KT 9999 FEW016 SCT026 PROB30 TEMPO 0405/0410 FEW020TCU

Stav a předpovědi počasí z více než 4 000 letišť (zprávy METAR a TAF).

Červené a žluté tečky na mapě představují dostupné meteorologické stanice.

Když kurzor umístíte na tečku, zobrazí se název stanice.

Pak kliknutím zobrazíte stav a předpověď počasí.

Chcete-li změnit mapu, kliknutím na zelené tlačítko se znaménkem +mapu přiblížíte, kliknutím na zelené tlačítko se znaménkem – mapu oddálíte a kliknutím na zelené šipky přejdete na sousední mapy.


METAR-TAF: